sensor_id;sensor_type;location;lat;lon;timestamp;P1;durP1;ratioP1;P2;durP2;ratioP2
14688;SDS011;7432;48.728;9.154;2023-07-31T00:01:29;6.50;;;6.00;;
14688;SDS011;7432;48.728;9.154;2023-07-31T00:03:55;6.83;;;6.03;;
14688;SDS011;7432;48.728;9.154;2023-07-31T00:06:22;8.33;;;7.50;;
14688;SDS011;7432;48.728;9.154;2023-07-31T00:08:48;8.80;;;7.90;;
14688;SDS011;7432;48.728;9.154;2023-07-31T00:11:16;7.93;;;6.80;;
14688;SDS011;7432;48.728;9.154;2023-07-31T00:13:42;6.83;;;6.30;;
14688;SDS011;7432;48.728;9.154;2023-07-31T00:16:08;6.50;;;5.90;;
14688;SDS011;7432;48.728;9.154;2023-07-31T00:18:35;8.27;;;6.47;;
14688;SDS011;7432;48.728;9.154;2023-07-31T00:21:01;5.90;;;5.47;;
14688;SDS011;7432;48.728;9.154;2023-07-31T00:23:27;6.00;;;5.50;;
14688;SDS011;7432;48.728;9.154;2023-07-31T00:25:54;6.13;;;5.60;;
14688;SDS011;7432;48.728;9.154;2023-07-31T00:28:22;5.63;;;5.23;;
14688;SDS011;7432;48.728;9.154;2023-07-31T00:30:48;6.00;;;5.50;;
14688;SDS011;7432;48.728;9.154;2023-07-31T00:33:14;6.47;;;5.47;;
14688;SDS011;7432;48.728;9.154;2023-07-31T00:35:41;5.90;;;5.40;;
14688;SDS011;7432;48.728;9.154;2023-07-31T00:38:07;6.00;;;5.50;;
14688;SDS011;7432;48.728;9.154;2023-07-31T00:40:34;5.70;;;5.20;;
14688;SDS011;7432;48.728;9.154;2023-07-31T00:43:01;6.57;;;5.37;;
14688;SDS011;7432;48.728;9.154;2023-07-31T00:45:29;5.77;;;5.37;;
14688;SDS011;7432;48.728;9.154;2023-07-31T00:47:56;5.73;;;5.13;;
14688;SDS011;7432;48.728;9.154;2023-07-31T00:50:23;6.17;;;5.60;;
14688;SDS011;7432;48.728;9.154;2023-07-31T00:52:50;6.10;;;5.63;;
14688;SDS011;7432;48.728;9.154;2023-07-31T00:55:17;6.47;;;5.80;;
14688;SDS011;7432;48.728;9.154;2023-07-31T00:57:44;6.07;;;5.47;;
14688;SDS011;7432;48.728;9.154;2023-07-31T01:00:11;6.00;;;5.50;;
14688;SDS011;7432;48.728;9.154;2023-07-31T01:02:39;5.87;;;5.37;;
14688;SDS011;7432;48.728;9.154;2023-07-31T01:05:06;5.57;;;5.17;;
14688;SDS011;7432;48.728;9.154;2023-07-31T01:07:35;5.93;;;5.43;;
14688;SDS011;7432;48.728;9.154;2023-07-31T01:10:09;6.10;;;5.50;;
14688;SDS011;7432;48.728;9.154;2023-07-31T01:12:41;6.07;;;5.60;;
14688;SDS011;7432;48.728;9.154;2023-07-31T01:15:09;5.70;;;5.30;;
14688;SDS011;7432;48.728;9.154;2023-07-31T01:17:36;5.93;;;5.43;;
14688;SDS011;7432;48.728;9.154;2023-07-31T01:20:05;5.67;;;5.27;;
14688;SDS011;7432;48.728;9.154;2023-07-31T01:22:53;5.57;;;5.17;;
14688;SDS011;7432;48.728;9.154;2023-07-31T01:25:48;9.30;;;5.50;;
14688;SDS011;7432;48.728;9.154;2023-07-31T01:28:20;6.00;;;5.40;;
14688;SDS011;7432;48.728;9.154;2023-07-31T01:30:50;5.93;;;5.50;;
14688;SDS011;7432;48.728;9.154;2023-07-31T01:33:19;6.00;;;5.60;;
14688;SDS011;7432;48.728;9.154;2023-07-31T01:35:45;6.07;;;5.63;;
14688;SDS011;7432;48.728;9.154;2023-07-31T01:38:14;6.40;;;5.83;;
14688;SDS011;7432;48.728;9.154;2023-07-31T01:40:41;5.77;;;5.30;;
14688;SDS011;7432;48.728;9.154;2023-07-31T01:43:09;6.77;;;6.17;;
14688;SDS011;7432;48.728;9.154;2023-07-31T01:45:35;6.17;;;5.67;;
14688;SDS011;7432;48.728;9.154;2023-07-31T01:48:02;6.97;;;6.30;;
14688;SDS011;7432;48.728;9.154;2023-07-31T01:50:28;5.90;;;5.50;;
14688;SDS011;7432;48.728;9.154;2023-07-31T01:52:55;5.90;;;5.50;;
14688;SDS011;7432;48.728;9.154;2023-07-31T01:55:21;5.67;;;5.27;;
14688;SDS011;7432;48.728;9.154;2023-07-31T01:57:47;6.37;;;5.93;;
14688;SDS011;7432;48.728;9.154;2023-07-31T02:00:16;6.13;;;5.63;;
14688;SDS011;7432;48.728;9.154;2023-07-31T02:02:42;7.97;;;5.63;;
14688;SDS011;7432;48.728;9.154;2023-07-31T02:05:08;6.40;;;5.80;;
14688;SDS011;7432;48.728;9.154;2023-07-31T02:07:35;6.07;;;5.67;;
14688;SDS011;7432;48.728;9.154;2023-07-31T02:10:01;6.67;;;5.50;;
14688;SDS011;7432;48.728;9.154;2023-07-31T02:12:28;6.27;;;5.87;;
14688;SDS011;7432;48.728;9.154;2023-07-31T02:14:56;6.33;;;5.40;;
14688;SDS011;7432;48.728;9.154;2023-07-31T02:17:23;6.27;;;5.23;;
14688;SDS011;7432;48.728;9.154;2023-07-31T02:19:50;5.57;;;5.27;;
14688;SDS011;7432;48.728;9.154;2023-07-31T02:22:16;4.97;;;4.67;;
14688;SDS011;7432;48.728;9.154;2023-07-31T02:24:43;5.37;;;4.87;;
14688;SDS011;7432;48.728;9.154;2023-07-31T02:27:09;5.50;;;5.00;;
14688;SDS011;7432;48.728;9.154;2023-07-31T02:29:35;6.30;;;5.50;;
14688;SDS011;7432;48.728;9.154;2023-07-31T02:32:02;5.93;;;5.43;;
14688;SDS011;7432;48.728;9.154;2023-07-31T02:34:31;5.73;;;5.40;;
14688;SDS011;7432;48.728;9.154;2023-07-31T02:36:57;6.43;;;5.67;;
14688;SDS011;7432;48.728;9.154;2023-07-31T02:39:23;7.13;;;6.40;;
14688;SDS011;7432;48.728;9.154;2023-07-31T02:41:50;6.47;;;5.87;;
14688;SDS011;7432;48.728;9.154;2023-07-31T02:44:16;5.70;;;5.20;;
14688;SDS011;7432;48.728;9.154;2023-07-31T02:46:42;5.83;;;5.40;;
14688;SDS011;7432;48.728;9.154;2023-07-31T02:49:09;5.93;;;5.43;;
14688;SDS011;7432;48.728;9.154;2023-07-31T02:51:36;5.93;;;5.53;;
14688;SDS011;7432;48.728;9.154;2023-07-31T02:54:03;6.03;;;5.50;;
14688;SDS011;7432;48.728;9.154;2023-07-31T02:56:29;6.43;;;5.87;;
14688;SDS011;7432;48.728;9.154;2023-07-31T02:58:55;5.80;;;5.20;;
14688;SDS011;7432;48.728;9.154;2023-07-31T03:01:22;5.90;;;5.40;;
14688;SDS011;7432;48.728;9.154;2023-07-31T03:03:48;6.10;;;5.60;;
14688;SDS011;7432;48.728;9.154;2023-07-31T03:06:14;5.47;;;5.07;;
14688;SDS011;7432;48.728;9.154;2023-07-31T03:08:41;6.43;;;5.60;;
14688;SDS011;7432;48.728;9.154;2023-07-31T03:11:08;5.95;;;5.35;;
14688;SDS011;7432;48.728;9.154;2023-07-31T03:13:34;6.47;;;5.87;;
14688;SDS011;7432;48.728;9.154;2023-07-31T03:16:00;5.90;;;5.37;;
14688;SDS011;7432;48.728;9.154;2023-07-31T03:18:27;5.93;;;5.40;;
14688;SDS011;7432;48.728;9.154;2023-07-31T03:20:53;6.53;;;5.80;;
14688;SDS011;7432;48.728;9.154;2023-07-31T03:23:19;5.97;;;5.53;;
14688;SDS011;7432;48.728;9.154;2023-07-31T03:25:56;5.70;;;5.30;;
14688;SDS011;7432;48.728;9.154;2023-07-31T03:28:23;6.07;;;5.57;;
14688;SDS011;7432;48.728;9.154;2023-07-31T03:30:50;6.47;;;5.97;;
14688;SDS011;7432;48.728;9.154;2023-07-31T03:33:17;6.87;;;5.90;;
14688;SDS011;7432;48.728;9.154;2023-07-31T03:35:43;6.00;;;5.60;;
14688;SDS011;7432;48.728;9.154;2023-07-31T03:38:10;6.30;;;5.80;;
14688;SDS011;7432;48.728;9.154;2023-07-31T03:40:36;6.30;;;5.80;;
14688;SDS011;7432;48.728;9.154;2023-07-31T03:43:04;5.53;;;4.97;;
14688;SDS011;7432;48.728;9.154;2023-07-31T03:45:31;5.83;;;5.33;;
14688;SDS011;7432;48.728;9.154;2023-07-31T03:47:57;6.17;;;5.73;;
14688;SDS011;7432;48.728;9.154;2023-07-31T03:50:24;6.07;;;5.20;;
14688;SDS011;7432;48.728;9.154;2023-07-31T03:52:51;6.20;;;5.70;;
14688;SDS011;7432;48.728;9.154;2023-07-31T03:55:18;6.60;;;6.00;;
14688;SDS011;7432;48.728;9.154;2023-07-31T03:57:44;6.50;;;6.00;;
14688;SDS011;7432;48.728;9.154;2023-07-31T04:00:12;8.13;;;5.90;;
14688;SDS011;7432;48.728;9.154;2023-07-31T04:02:39;6.43;;;5.93;;
14688;SDS011;7432;48.728;9.154;2023-07-31T04:05:05;6.80;;;6.20;;
14688;SDS011;7432;48.728;9.154;2023-07-31T04:07:32;6.23;;;5.57;;
14688;SDS011;7432;48.728;9.154;2023-07-31T04:09:59;6.67;;;6.07;;
14688;SDS011;7432;48.728;9.154;2023-07-31T04:12:26;5.63;;;5.23;;
14688;SDS011;7432;48.728;9.154;2023-07-31T04:14:52;6.50;;;6.00;;
14688;SDS011;7432;48.728;9.154;2023-07-31T04:17:20;6.33;;;5.80;;
14688;SDS011;7432;48.728;9.154;2023-07-31T04:19:46;6.80;;;6.30;;
14688;SDS011;7432;48.728;9.154;2023-07-31T04:22:13;6.23;;;5.67;;
14688;SDS011;7432;48.728;9.154;2023-07-31T04:24:39;6.87;;;6.40;;
14688;SDS011;7432;48.728;9.154;2023-07-31T04:27:05;5.70;;;5.30;;
14688;SDS011;7432;48.728;9.154;2023-07-31T04:29:32;6.50;;;5.90;;
14688;SDS011;7432;48.728;9.154;2023-07-31T04:31:58;6.27;;;5.67;;
14688;SDS011;7432;48.728;9.154;2023-07-31T04:34:26;7.00;;;6.50;;
14688;SDS011;7432;48.728;9.154;2023-07-31T04:36:52;6.73;;;6.20;;
14688;SDS011;7432;48.728;9.154;2023-07-31T04:39:18;6.63;;;6.20;;
14688;SDS011;7432;48.728;9.154;2023-07-31T04:41:45;7.20;;;6.60;;
14688;SDS011;7432;48.728;9.154;2023-07-31T04:44:11;6.80;;;6.20;;
14688;SDS011;7432;48.728;9.154;2023-07-31T04:46:38;6.50;;;5.90;;
14688;SDS011;7432;48.728;9.154;2023-07-31T04:49:04;6.37;;;5.87;;
14688;SDS011;7432;48.728;9.154;2023-07-31T04:51:32;9.37;;;7.00;;
14688;SDS011;7432;48.728;9.154;2023-07-31T04:53:58;6.67;;;6.17;;
14688;SDS011;7432;48.728;9.154;2023-07-31T04:56:24;7.00;;;6.50;;
14688;SDS011;7432;48.728;9.154;2023-07-31T04:58:51;7.20;;;6.60;;
14688;SDS011;7432;48.728;9.154;2023-07-31T05:01:17;7.20;;;6.60;;
14688;SDS011;7432;48.728;9.154;2023-07-31T05:03:44;7.90;;;7.20;;
14688;SDS011;7432;48.728;9.154;2023-07-31T05:06:10;6.90;;;6.30;;
14688;SDS011;7432;48.728;9.154;2023-07-31T05:08:38;6.90;;;6.40;;
14688;SDS011;7432;48.728;9.154;2023-07-31T05:11:05;6.97;;;6.43;;
14688;SDS011;7432;48.728;9.154;2023-07-31T05:13:31;6.93;;;6.50;;
14688;SDS011;7432;48.728;9.154;2023-07-31T05:15:57;7.23;;;6.67;;
14688;SDS011;7432;48.728;9.154;2023-07-31T05:18:24;7.33;;;6.77;;
14688;SDS011;7432;48.728;9.154;2023-07-31T05:20:50;7.53;;;6.83;;
14688;SDS011;7432;48.728;9.154;2023-07-31T05:23:16;7.13;;;6.60;;
14688;SDS011;7432;48.728;9.154;2023-07-31T05:25:44;6.70;;;6.10;;
14688;SDS011;7432;48.728;9.154;2023-07-31T05:28:12;7.23;;;6.63;;
14688;SDS011;7432;48.728;9.154;2023-07-31T05:30:38;7.20;;;6.70;;
14688;SDS011;7432;48.728;9.154;2023-07-31T05:33:05;7.37;;;6.77;;
14688;SDS011;7432;48.728;9.154;2023-07-31T05:35:31;7.73;;;6.93;;
14688;SDS011;7432;48.728;9.154;2023-07-31T05:37:57;6.60;;;6.13;;
14688;SDS011;7432;48.728;9.154;2023-07-31T05:40:24;7.10;;;6.50;;
14688;SDS011;7432;48.728;9.154;2023-07-31T05:42:51;6.80;;;6.30;;
14688;SDS011;7432;48.728;9.154;2023-07-31T05:45:18;6.87;;;6.30;;
14688;SDS011;7432;48.728;9.154;2023-07-31T05:47:44;7.20;;;6.60;;
14688;SDS011;7432;48.728;9.154;2023-07-31T05:50:11;6.47;;;5.97;;
14688;SDS011;7432;48.728;9.154;2023-07-31T05:52:38;7.20;;;6.70;;
14688;SDS011;7432;48.728;9.154;2023-07-31T05:55:04;6.63;;;6.03;;
14688;SDS011;7432;48.728;9.154;2023-07-31T05:57:31;8.10;;;7.30;;
14688;SDS011;7432;48.728;9.154;2023-07-31T05:59:59;7.93;;;7.33;;
14688;SDS011;7432;48.728;9.154;2023-07-31T06:02:26;7.63;;;6.83;;
14688;SDS011;7432;48.728;9.154;2023-07-31T06:04:52;8.23;;;7.53;;
14688;SDS011;7432;48.728;9.154;2023-07-31T06:07:18;7.50;;;6.80;;
14688;SDS011;7432;48.728;9.154;2023-07-31T06:09:45;7.87;;;7.27;;
14688;SDS011;7432;48.728;9.154;2023-07-31T06:12:11;8.03;;;7.37;;
14688;SDS011;7432;48.728;9.154;2023-07-31T06:14:38;7.93;;;7.33;;
14688;SDS011;7432;48.728;9.154;2023-07-31T06:17:05;7.30;;;6.70;;
14688;SDS011;7432;48.728;9.154;2023-07-31T06:19:32;7.00;;;6.40;;
14688;SDS011;7432;48.728;9.154;2023-07-31T06:21:58;7.53;;;6.82;;
14688;SDS011;7432;48.728;9.154;2023-07-31T06:24:25;7.70;;;7.07;;
14688;SDS011;7432;48.728;9.154;2023-07-31T06:26:51;7.03;;;6.55;;
14688;SDS011;7432;48.728;9.154;2023-07-31T06:29:17;8.30;;;7.55;;
14688;SDS011;7432;48.728;9.154;2023-07-31T06:31:44;7.97;;;7.40;;
14688;SDS011;7432;48.728;9.154;2023-07-31T06:34:11;7.85;;;7.20;;
14688;SDS011;7432;48.728;9.154;2023-07-31T06:36:38;7.90;;;7.30;;
14688;SDS011;7432;48.728;9.154;2023-07-31T06:39:04;8.27;;;7.72;;
14688;SDS011;7432;48.728;9.154;2023-07-31T06:41:30;8.50;;;7.85;;
14688;SDS011;7432;48.728;9.154;2023-07-31T06:43:57;8.52;;;7.93;;
14688;SDS011;7432;48.728;9.154;2023-07-31T06:46:23;8.30;;;7.70;;
14688;SDS011;7432;48.728;9.154;2023-07-31T06:48:49;7.82;;;7.22;;
14688;SDS011;7432;48.728;9.154;2023-07-31T06:51:17;8.30;;;7.70;;
14688;SDS011;7432;48.728;9.154;2023-07-31T06:53:43;8.15;;;7.55;;
14688;SDS011;7432;48.728;9.154;2023-07-31T06:56:10;8.48;;;7.90;;
14688;SDS011;7432;48.728;9.154;2023-07-31T06:58:37;8.30;;;7.70;;
14688;SDS011;7432;48.728;9.154;2023-07-31T07:01:03;9.05;;;8.35;;
14688;SDS011;7432;48.728;9.154;2023-07-31T07:03:29;8.70;;;8.05;;
14688;SDS011;7432;48.728;9.154;2023-07-31T07:05:56;8.77;;;8.07;;
14688;SDS011;7432;48.728;9.154;2023-07-31T07:08:23;8.98;;;8.27;;
14688;SDS011;7432;48.728;9.154;2023-07-31T07:10:50;8.30;;;7.70;;
14688;SDS011;7432;48.728;9.154;2023-07-31T07:13:16;8.32;;;7.80;;
14688;SDS011;7432;48.728;9.154;2023-07-31T07:15:43;8.77;;;8.18;;
14688;SDS011;7432;48.728;9.154;2023-07-31T07:18:14;8.38;;;7.78;;
14688;SDS011;7432;48.728;9.154;2023-07-31T07:20:40;8.68;;;7.97;;
14688;SDS011;7432;48.728;9.154;2023-07-31T07:23:07;8.77;;;8.10;;
14688;SDS011;7432;48.728;9.154;2023-07-31T07:25:35;9.18;;;8.57;;
14688;SDS011;7432;48.728;9.154;2023-07-31T07:28:03;8.77;;;8.07;;
14688;SDS011;7432;48.728;9.154;2023-07-31T07:30:30;9.25;;;8.50;;
14688;SDS011;7432;48.728;9.154;2023-07-31T07:32:56;9.73;;;9.00;;
14688;SDS011;7432;48.728;9.154;2023-07-31T07:35:23;9.50;;;8.88;;
14688;SDS011;7432;48.728;9.154;2023-07-31T07:37:49;9.43;;;8.80;;
14688;SDS011;7432;48.728;9.154;2023-07-31T07:40:16;8.85;;;8.25;;
14688;SDS011;7432;48.728;9.154;2023-07-31T07:42:43;9.10;;;8.32;;
14688;SDS011;7432;48.728;9.154;2023-07-31T07:45:10;7.80;;;7.22;;
14688;SDS011;7432;48.728;9.154;2023-07-31T07:47:37;9.18;;;8.48;;
14688;SDS011;7432;48.728;9.154;2023-07-31T07:50:04;8.63;;;7.93;;
14688;SDS011;7432;48.728;9.154;2023-07-31T07:52:31;9.10;;;8.27;;
14688;SDS011;7432;48.728;9.154;2023-07-31T07:54:58;8.68;;;8.07;;
14688;SDS011;7432;48.728;9.154;2023-07-31T07:57:25;8.90;;;8.20;;
14688;SDS011;7432;48.728;9.154;2023-07-31T07:59:53;9.43;;;8.68;;
14688;SDS011;7432;48.728;9.154;2023-07-31T08:02:19;8.82;;;8.23;;
14688;SDS011;7432;48.728;9.154;2023-07-31T08:04:45;9.32;;;8.70;;
14688;SDS011;7432;48.728;9.154;2023-07-31T08:07:12;9.48;;;8.80;;
14688;SDS011;7432;48.728;9.154;2023-07-31T08:09:38;9.50;;;8.80;;
14688;SDS011;7432;48.728;9.154;2023-07-31T08:12:05;9.65;;;9.00;;
14688;SDS011;7432;48.728;9.154;2023-07-31T08:14:32;11.68;;;8.52;;
14688;SDS011;7432;48.728;9.154;2023-07-31T08:17:00;8.30;;;7.63;;
14688;SDS011;7432;48.728;9.154;2023-07-31T08:19:28;9.82;;;9.05;;
14688;SDS011;7432;48.728;9.154;2023-07-31T08:21:54;9.32;;;8.82;;
14688;SDS011;7432;48.728;9.154;2023-07-31T08:24:21;9.45;;;8.75;;
14688;SDS011;7432;48.728;9.154;2023-07-31T08:26:47;9.55;;;8.90;;
14688;SDS011;7432;48.728;9.154;2023-07-31T08:29:14;8.80;;;8.30;;
14688;SDS011;7432;48.728;9.154;2023-07-31T08:31:40;9.90;;;9.02;;
14688;SDS011;7432;48.728;9.154;2023-07-31T08:34:08;9.73;;;8.93;;
14688;SDS011;7432;48.728;9.154;2023-07-31T08:36:34;9.20;;;8.60;;
14688;SDS011;7432;48.728;9.154;2023-07-31T08:39:01;7.57;;;7.07;;
14688;SDS011;7432;48.728;9.154;2023-07-31T08:41:28;10.23;;;9.32;;
14688;SDS011;7432;48.728;9.154;2023-07-31T08:43:55;9.95;;;9.25;;
14688;SDS011;7432;48.728;9.154;2023-07-31T08:46:23;10.00;;;9.30;;
14688;SDS011;7432;48.728;9.154;2023-07-31T08:48:50;9.88;;;9.18;;
14688;SDS011;7432;48.728;9.154;2023-07-31T08:51:20;10.18;;;9.57;;
14688;SDS011;7432;48.728;9.154;2023-07-31T08:53:46;10.25;;;9.55;;
14688;SDS011;7432;48.728;9.154;2023-07-31T08:56:13;9.80;;;9.00;;
14688;SDS011;7432;48.728;9.154;2023-07-31T08:58:41;9.13;;;8.45;;
14688;SDS011;7432;48.728;9.154;2023-07-31T09:01:09;9.48;;;8.75;;
14688;SDS011;7432;48.728;9.154;2023-07-31T09:03:36;10.23;;;9.50;;
14688;SDS011;7432;48.728;9.154;2023-07-31T09:06:05;10.38;;;9.55;;
14688;SDS011;7432;48.728;9.154;2023-07-31T09:08:34;10.07;;;9.20;;
14688;SDS011;7432;48.728;9.154;2023-07-31T09:11:01;10.38;;;9.57;;
14688;SDS011;7432;48.728;9.154;2023-07-31T09:13:30;10.23;;;9.50;;
14688;SDS011;7432;48.728;9.154;2023-07-31T09:15:57;8.90;;;8.10;;
14688;SDS011;7432;48.728;9.154;2023-07-31T09:18:24;10.00;;;9.27;;
14688;SDS011;7432;48.728;9.154;2023-07-31T09:21:00;11.23;;;10.32;;
14688;SDS011;7432;48.728;9.154;2023-07-31T09:23:27;10.10;;;9.40;;
14688;SDS011;7432;48.728;9.154;2023-07-31T09:26:08;10.30;;;9.60;;
14688;SDS011;7432;48.728;9.154;2023-07-31T09:28:34;10.90;;;10.05;;
14688;SDS011;7432;48.728;9.154;2023-07-31T09:31:00;10.68;;;9.82;;
14688;SDS011;7432;48.728;9.154;2023-07-31T09:33:27;11.30;;;10.43;;
14688;SDS011;7432;48.728;9.154;2023-07-31T09:35:53;9.32;;;8.73;;
14688;SDS011;7432;48.728;9.154;2023-07-31T09:38:20;10.95;;;10.25;;
14688;SDS011;7432;48.728;9.154;2023-07-31T09:40:47;10.52;;;9.82;;
14688;SDS011;7432;48.728;9.154;2023-07-31T09:43:16;10.65;;;9.85;;
14688;SDS011;7432;48.728;9.154;2023-07-31T09:45:44;11.10;;;10.20;;
14688;SDS011;7432;48.728;9.154;2023-07-31T09:48:12;10.70;;;9.90;;
14688;SDS011;7432;48.728;9.154;2023-07-31T09:50:41;10.27;;;9.55;;
14688;SDS011;7432;48.728;9.154;2023-07-31T09:53:08;10.30;;;9.30;;
14688;SDS011;7432;48.728;9.154;2023-07-31T09:55:35;10.25;;;9.35;;
14688;SDS011;7432;48.728;9.154;2023-07-31T09:58:05;10.13;;;9.32;;
14688;SDS011;7432;48.728;9.154;2023-07-31T10:00:33;10.13;;;9.32;;
14688;SDS011;7432;48.728;9.154;2023-07-31T10:03:00;10.65;;;9.93;;
14688;SDS011;7432;48.728;9.154;2023-07-31T10:05:30;10.93;;;10.13;;
14688;SDS011;7432;48.728;9.154;2023-07-31T10:08:04;10.68;;;9.98;;
14688;SDS011;7432;48.728;9.154;2023-07-31T10:10:33;10.90;;;10.10;;
14688;SDS011;7432;48.728;9.154;2023-07-31T10:13:02;10.50;;;9.70;;
14688;SDS011;7432;48.728;9.154;2023-07-31T10:15:31;10.77;;;10.00;;
14688;SDS011;7432;48.728;9.154;2023-07-31T10:17:59;10.73;;;9.98;;
14688;SDS011;7432;48.728;9.154;2023-07-31T10:20:26;11.05;;;10.23;;
14688;SDS011;7432;48.728;9.154;2023-07-31T10:22:54;10.57;;;9.88;;
14688;SDS011;7432;48.728;9.154;2023-07-31T10:25:22;11.38;;;10.38;;
14688;SDS011;7432;48.728;9.154;2023-07-31T10:27:48;10.93;;;10.23;;
14688;SDS011;7432;48.728;9.154;2023-07-31T10:30:17;10.30;;;9.57;;
14688;SDS011;7432;48.728;9.154;2023-07-31T10:32:46;11.57;;;10.57;;
14688;SDS011;7432;48.728;9.154;2023-07-31T10:35:14;11.65;;;10.75;;
14688;SDS011;7432;48.728;9.154;2023-07-31T10:37:43;10.88;;;10.07;;
14688;SDS011;7432;48.728;9.154;2023-07-31T10:40:10;10.30;;;9.70;;
14688;SDS011;7432;48.728;9.154;2023-07-31T10:42:44;10.85;;;10.15;;
14688;SDS011;7432;48.728;9.154;2023-07-31T10:45:12;11.07;;;10.30;;
14688;SDS011;7432;48.728;9.154;2023-07-31T10:47:40;10.45;;;9.70;;
14688;SDS011;7432;48.728;9.154;2023-07-31T10:50:12;9.68;;;9.05;;
14688;SDS011;7432;48.728;9.154;2023-07-31T10:52:39;11.13;;;10.32;;
14688;SDS011;7432;48.728;9.154;2023-07-31T10:55:15;10.55;;;9.85;;
14688;SDS011;7432;48.728;9.154;2023-07-31T10:57:52;10.80;;;10.20;;
14688;SDS011;7432;48.728;9.154;2023-07-31T11:00:20;11.07;;;10.27;;
14688;SDS011;7432;48.728;9.154;2023-07-31T11:03:02;11.80;;;11.00;;
14688;SDS011;7432;48.728;9.154;2023-07-31T11:05:51;11.98;;;10.88;;
14688;SDS011;7432;48.728;9.154;2023-07-31T11:08:20;12.13;;;11.23;;
14688;SDS011;7432;48.728;9.154;2023-07-31T11:10:49;11.85;;;11.05;;
14688;SDS011;7432;48.728;9.154;2023-07-31T11:13:17;11.07;;;10.38;;
14688;SDS011;7432;48.728;9.154;2023-07-31T11:15:43;12.00;;;11.10;;
14688;SDS011;7432;48.728;9.154;2023-07-31T11:18:11;11.07;;;10.27;;
14688;SDS011;7432;48.728;9.154;2023-07-31T11:20:38;12.02;;;11.02;;
14688;SDS011;7432;48.728;9.154;2023-07-31T11:23:06;11.40;;;10.57;;
14688;SDS011;7432;48.728;9.154;2023-07-31T11:25:35;11.63;;;10.30;;
14688;SDS011;7432;48.728;9.154;2023-07-31T11:28:03;11.15;;;10.18;;
14688;SDS011;7432;48.728;9.154;2023-07-31T11:30:30;11.70;;;10.88;;
14688;SDS011;7432;48.728;9.154;2023-07-31T11:32:57;11.15;;;10.35;;
14688;SDS011;7432;48.728;9.154;2023-07-31T11:35:25;11.23;;;10.43;;
14688;SDS011;7432;48.728;9.154;2023-07-31T11:37:51;11.50;;;10.52;;
14688;SDS011;7432;48.728;9.154;2023-07-31T11:40:17;11.27;;;10.30;;
14688;SDS011;7432;48.728;9.154;2023-07-31T11:42:44;11.23;;;10.43;;
14688;SDS011;7432;48.728;9.154;2023-07-31T11:45:11;10.90;;;10.10;;
14688;SDS011;7432;48.728;9.154;2023-07-31T11:47:37;11.13;;;10.23;;
14688;SDS011;7432;48.728;9.154;2023-07-31T11:50:05;10.65;;;9.90;;
14688;SDS011;7432;48.728;9.154;2023-07-31T11:52:37;11.15;;;10.35;;
14688;SDS011;7432;48.728;9.154;2023-07-31T11:55:06;11.27;;;10.20;;
14688;SDS011;7432;48.728;9.154;2023-07-31T11:57:35;10.50;;;9.63;;
14688;SDS011;7432;48.728;9.154;2023-07-31T12:00:04;10.25;;;9.55;;
14688;SDS011;7432;48.728;9.154;2023-07-31T12:02:34;10.18;;;9.35;;
14688;SDS011;7432;48.728;9.154;2023-07-31T12:05:01;10.55;;;9.75;;
14688;SDS011;7432;48.728;9.154;2023-07-31T12:07:27;10.95;;;10.25;;
14688;SDS011;7432;48.728;9.154;2023-07-31T12:10:10;11.25;;;10.30;;
14688;SDS011;7432;48.728;9.154;2023-07-31T12:12:37;11.02;;;10.13;;
14688;SDS011;7432;48.728;9.154;2023-07-31T12:15:07;10.70;;;10.00;;
14688;SDS011;7432;48.728;9.154;2023-07-31T12:17:40;10.82;;;10.02;;
14688;SDS011;7432;48.728;9.154;2023-07-31T12:20:07;10.73;;;9.82;;
14688;SDS011;7432;48.728;9.154;2023-07-31T12:22:35;10.50;;;9.80;;
14688;SDS011;7432;48.728;9.154;2023-07-31T12:25:03;11.30;;;10.40;;
14688;SDS011;7432;48.728;9.154;2023-07-31T12:27:32;10.10;;;9.20;;
14688;SDS011;7432;48.728;9.154;2023-07-31T12:29:59;10.48;;;9.68;;
14688;SDS011;7432;48.728;9.154;2023-07-31T12:32:25;9.95;;;9.10;;
14688;SDS011;7432;48.728;9.154;2023-07-31T12:34:53;9.95;;;9.25;;
14688;SDS011;7432;48.728;9.154;2023-07-31T12:37:20;10.82;;;9.90;;
14688;SDS011;7432;48.728;9.154;2023-07-31T12:39:46;10.60;;;9.65;;
14688;SDS011;7432;48.728;9.154;2023-07-31T12:42:16;10.43;;;9.63;;
14688;SDS011;7432;48.728;9.154;2023-07-31T12:44:43;10.10;;;9.30;;
14688;SDS011;7432;48.728;9.154;2023-07-31T12:47:09;11.30;;;10.30;;
14688;SDS011;7432;48.728;9.154;2023-07-31T12:49:36;11.23;;;10.15;;
14688;SDS011;7432;48.728;9.154;2023-07-31T12:52:03;10.50;;;9.70;;
14688;SDS011;7432;48.728;9.154;2023-07-31T12:54:29;10.15;;;9.45;;
14688;SDS011;7432;48.728;9.154;2023-07-31T12:56:56;10.23;;;9.52;;
14688;SDS011;7432;48.728;9.154;2023-07-31T12:59:24;10.40;;;9.60;;
14688;SDS011;7432;48.728;9.154;2023-07-31T13:01:50;10.88;;;9.98;;
14688;SDS011;7432;48.728;9.154;2023-07-31T13:04:17;10.25;;;9.45;;
14688;SDS011;7432;48.728;9.154;2023-07-31T13:06:43;9.90;;;9.10;;
14688;SDS011;7432;48.728;9.154;2023-07-31T13:09:10;10.43;;;9.63;;
14688;SDS011;7432;48.728;9.154;2023-07-31T13:11:37;10.10;;;9.38;;
14688;SDS011;7432;48.728;9.154;2023-07-31T13:14:03;10.50;;;9.82;;
14688;SDS011;7432;48.728;9.154;2023-07-31T13:16:31;10.30;;;9.35;;
14688;SDS011;7432;48.728;9.154;2023-07-31T13:18:58;9.63;;;9.02;;
14688;SDS011;7432;48.728;9.154;2023-07-31T13:21:24;9.63;;;8.93;;
14688;SDS011;7432;48.728;9.154;2023-07-31T13:23:50;10.02;;;9.30;;
14688;SDS011;7432;48.728;9.154;2023-07-31T13:26:17;10.30;;;9.60;;
14688;SDS011;7432;48.728;9.154;2023-07-31T13:28:43;10.00;;;9.20;;
14688;SDS011;7432;48.728;9.154;2023-07-31T13:31:10;9.93;;;9.20;;
14688;SDS011;7432;48.728;9.154;2023-07-31T13:33:38;10.82;;;9.90;;
14688;SDS011;7432;48.728;9.154;2023-07-31T13:36:04;9.10;;;8.50;;
14688;SDS011;7432;48.728;9.154;2023-07-31T13:38:30;9.57;;;8.77;;
14688;SDS011;7432;48.728;9.154;2023-07-31T13:40:57;9.15;;;8.45;;
14688;SDS011;7432;48.728;9.154;2023-07-31T13:43:23;9.55;;;8.73;;
14688;SDS011;7432;48.728;9.154;2023-07-31T13:45:50;10.55;;;9.65;;
14688;SDS011;7432;48.728;9.154;2023-07-31T13:48:16;10.15;;;9.25;;
14688;SDS011;7432;48.728;9.154;2023-07-31T13:50:44;9.82;;;9.00;;
14688;SDS011;7432;48.728;9.154;2023-07-31T13:53:10;10.23;;;9.40;;
14688;SDS011;7432;48.728;9.154;2023-07-31T13:55:37;11.05;;;10.15;;
14688;SDS011;7432;48.728;9.154;2023-07-31T13:58:03;10.00;;;9.10;;
14688;SDS011;7432;48.728;9.154;2023-07-31T14:00:29;9.55;;;8.68;;
14688;SDS011;7432;48.728;9.154;2023-07-31T14:02:56;10.35;;;9.50;;
14688;SDS011;7432;48.728;9.154;2023-07-31T14:05:23;9.02;;;8.32;;
14688;SDS011;7432;48.728;9.154;2023-07-31T14:07:50;9.48;;;8.57;;
14688;SDS011;7432;48.728;9.154;2023-07-31T14:10:17;10.68;;;9.00;;
14688;SDS011;7432;48.728;9.154;2023-07-31T14:12:43;10.05;;;9.15;;
14688;SDS011;7432;48.728;9.154;2023-07-31T14:15:10;10.05;;;9.15;;
14688;SDS011;7432;48.728;9.154;2023-07-31T14:17:36;9.75;;;9.05;;
14688;SDS011;7432;48.728;9.154;2023-07-31T14:20:03;10.60;;;8.90;;
14688;SDS011;7432;48.728;9.154;2023-07-31T14:22:30;10.00;;;8.80;;
14688;SDS011;7432;48.728;9.154;2023-07-31T14:25:00;10.02;;;9.10;;
14688;SDS011;7432;48.728;9.154;2023-07-31T14:27:27;10.18;;;9.25;;
14688;SDS011;7432;48.728;9.154;2023-07-31T14:29:53;10.23;;;9.25;;
14688;SDS011;7432;48.728;9.154;2023-07-31T14:32:20;9.45;;;8.75;;
14688;SDS011;7432;48.728;9.154;2023-07-31T14:34:46;9.18;;;8.43;;
14688;SDS011;7432;48.728;9.154;2023-07-31T14:37:13;9.15;;;8.48;;
14688;SDS011;7432;48.728;9.154;2023-07-31T14:39:39;9.60;;;8.90;;
14688;SDS011;7432;48.728;9.154;2023-07-31T14:42:07;9.15;;;8.45;;
14688;SDS011;7432;48.728;9.154;2023-07-31T14:44:33;9.30;;;8.70;;
14688;SDS011;7432;48.728;9.154;2023-07-31T14:47:00;8.88;;;8.27;;
14688;SDS011;7432;48.728;9.154;2023-07-31T14:49:26;9.75;;;8.95;;
14688;SDS011;7432;48.728;9.154;2023-07-31T14:51:53;9.32;;;8.55;;
14688;SDS011;7432;48.728;9.154;2023-07-31T14:54:20;9.52;;;8.82;;
14688;SDS011;7432;48.728;9.154;2023-07-31T14:56:46;9.35;;;8.73;;